sensor_id;sensor_type;location;lat;lon;timestamp;pressure;altitude;pressure_sealevel;temperature
74750;BMP280;63269;53.330;-6.288;2022-12-29T00:01:41;98465.25;;;20.63
74750;BMP280;63269;53.330;-6.288;2022-12-29T00:04:06;98465.03;;;20.61
74750;BMP280;63269;53.330;-6.288;2022-12-29T00:06:32;98475.44;;;20.58
74750;BMP280;63269;53.330;-6.288;2022-12-29T00:08:58;98478.59;;;20.57
74750;BMP280;63269;53.330;-6.288;2022-12-29T00:11:25;98485.88;;;20.56
74750;BMP280;63269;53.330;-6.288;2022-12-29T00:13:51;98494.31;;;20.55
74750;BMP280;63269;53.330;-6.288;2022-12-29T00:16:36;98492.84;;;20.54
74750;BMP280;63269;53.330;-6.288;2022-12-29T00:19:03;98508.13;;;20.53
74750;BMP280;63269;53.330;-6.288;2022-12-29T00:21:28;98508.13;;;20.53
74750;BMP280;63269;53.330;-6.288;2022-12-29T00:24:18;98516.34;;;20.50
74750;BMP280;63269;53.330;-6.288;2022-12-29T00:26:48;98516.34;;;20.50
74750;BMP280;63269;53.330;-6.288;2022-12-29T00:29:33;98529.91;;;20.46
74750;BMP280;63269;53.330;-6.288;2022-12-29T00:32:17;98527.97;;;20.47
74750;BMP280;63269;53.330;-6.288;2022-12-29T00:35:01;98532.31;;;20.44
74750;BMP280;63269;53.330;-6.288;2022-12-29T00:37:40;98536.19;;;20.43
74750;BMP280;63269;53.330;-6.288;2022-12-29T00:40:25;98536.19;;;20.43
74750;BMP280;63269;53.330;-6.288;2022-12-29T00:43:09;98542.97;;;20.38
74750;BMP280;63269;53.330;-6.288;2022-12-29T00:45:53;98542.97;;;20.38
74750;BMP280;63269;53.330;-6.288;2022-12-29T00:48:19;98530.63;;;20.35
74750;BMP280;63269;53.330;-6.288;2022-12-29T00:51:04;98540.56;;;20.35
74750;BMP280;63269;53.330;-6.288;2022-12-29T00:53:30;98547.78;;;20.34
74750;BMP280;63269;53.330;-6.288;2022-12-29T00:55:55;98547.78;;;20.34
74750;BMP280;63269;53.330;-6.288;2022-12-29T00:58:21;98550.19;;;20.32
74750;BMP280;63269;53.330;-6.288;2022-12-29T01:00:46;98548.03;;;20.31
74750;BMP280;63269;53.330;-6.288;2022-12-29T01:03:11;98546.09;;;20.31
74750;BMP280;63269;53.330;-6.288;2022-12-29T01:05:37;98553.09;;;20.29
74750;BMP280;63269;53.330;-6.288;2022-12-29T01:08:02;98553.09;;;20.29
74750;BMP280;63269;53.330;-6.288;2022-12-29T01:10:28;98565.69;;;20.28
74750;BMP280;63269;53.330;-6.288;2022-12-29T01:12:53;98567.63;;;20.28
74750;BMP280;63269;53.330;-6.288;2022-12-29T01:15:19;98567.63;;;20.28
74750;BMP280;63269;53.330;-6.288;2022-12-29T01:17:44;98575.81;;;20.24
74750;BMP280;63269;53.330;-6.288;2022-12-29T01:20:10;98586.47;;;20.24
74750;BMP280;63269;53.330;-6.288;2022-12-29T01:22:36;98586.47;;;20.24
74750;BMP280;63269;53.330;-6.288;2022-12-29T01:25:02;98577.03;;;20.23
74750;BMP280;63269;53.330;-6.288;2022-12-29T01:27:28;98577.53;;;20.22
74750;BMP280;63269;53.330;-6.288;2022-12-29T01:29:53;98577.53;;;20.22
74750;BMP280;63269;53.330;-6.288;2022-12-29T01:32:19;98585.25;;;20.20
74750;BMP280;63269;53.330;-6.288;2022-12-29T01:34:44;98575.09;;;20.18
74750;BMP280;63269;53.330;-6.288;2022-12-29T01:37:10;98577.03;;;20.17
74750;BMP280;63269;53.330;-6.288;2022-12-29T01:39:35;98582.09;;;20.15
74750;BMP280;63269;53.330;-6.288;2022-12-29T01:42:01;98578.69;;;20.15
74750;BMP280;63269;53.330;-6.288;2022-12-29T01:47:21;98587.16;;;20.13
74750;BMP280;63269;53.330;-6.288;2022-12-29T01:49:48;98584.97;;;20.12
74750;BMP280;63269;53.330;-6.288;2022-12-29T01:52:13;98600.22;;;20.11
74750;BMP280;63269;53.330;-6.288;2022-12-29T01:54:43;98598.28;;;20.12
74750;BMP280;63269;53.330;-6.288;2022-12-29T01:57:16;98592.25;;;20.11
74750;BMP280;63269;53.330;-6.288;2022-12-29T01:59:46;98592.25;;;20.11
74750;BMP280;63269;53.330;-6.288;2022-12-29T02:02:13;98601.91;;;20.09
74750;BMP280;63269;53.330;-6.288;2022-12-29T02:04:41;98604.81;;;20.05
74750;BMP280;63269;53.330;-6.288;2022-12-29T02:07:17;98614.22;;;20.06
74750;BMP280;63269;53.330;-6.288;2022-12-29T02:09:45;98620.78;;;20.05
74750;BMP280;63269;53.330;-6.288;2022-12-29T02:12:12;98619.31;;;20.04
74750;BMP280;63269;53.330;-6.288;2022-12-29T02:14:37;98619.31;;;20.04
74750;BMP280;63269;53.330;-6.288;2022-12-29T02:26:14;98626.06;;;20.00
74750;BMP280;63269;53.330;-6.288;2022-12-29T02:31:46;98639.59;;;19.96
74750;BMP280;63269;53.330;-6.288;2022-12-29T02:37:46;98641.53;;;19.95
74750;BMP280;63269;53.330;-6.288;2022-12-29T02:42:59;98651.91;;;19.93
74750;BMP280;63269;53.330;-6.288;2022-12-29T02:45:31;98646.34;;;19.91
74750;BMP280;63269;53.330;-6.288;2022-12-29T02:48:09;98646.34;;;19.91
74750;BMP280;63269;53.330;-6.288;2022-12-29T02:51:00;98660.84;;;19.90
74750;BMP280;63269;53.330;-6.288;2022-12-29T02:53:28;98679.47;;;19.90
74750;BMP280;63269;53.330;-6.288;2022-12-29T02:56:12;98670.00;;;19.89
74750;BMP280;63269;53.330;-6.288;2022-12-29T02:58:37;98683.31;;;19.89
74750;BMP280;63269;53.330;-6.288;2022-12-29T03:09:50;98693.00;;;19.87
74750;BMP280;63269;53.330;-6.288;2022-12-29T03:17:54;98690.56;;;19.83
74750;BMP280;63269;53.330;-6.288;2022-12-29T03:20:26;98690.56;;;19.83
74750;BMP280;63269;53.330;-6.288;2022-12-29T03:22:56;98712.28;;;19.82
74750;BMP280;63269;53.330;-6.288;2022-12-29T03:25:29;98712.28;;;19.82
74750;BMP280;63269;53.330;-6.288;2022-12-29T03:27:56;98720.75;;;19.80
74750;BMP280;63269;53.330;-6.288;2022-12-29T03:30:22;98727.03;;;19.77
74750;BMP280;63269;53.330;-6.288;2022-12-29T03:32:58;98731.88;;;19.79
74750;BMP280;63269;53.330;-6.288;2022-12-29T03:35:26;98731.88;;;19.79
74750;BMP280;63269;53.330;-6.288;2022-12-29T03:37:59;98747.84;;;19.79
74750;BMP280;63269;53.330;-6.288;2022-12-29T03:40:26;98757.00;;;19.77
74750;BMP280;63269;53.330;-6.288;2022-12-29T03:42:53;98758.94;;;19.77
74750;BMP280;63269;53.330;-6.288;2022-12-29T03:45:19;98773.41;;;19.76
74750;BMP280;63269;53.330;-6.288;2022-12-29T03:47:45;98783.34;;;19.75
74750;BMP280;63269;53.330;-6.288;2022-12-29T03:50:13;98783.34;;;19.75
74750;BMP280;63269;53.330;-6.288;2022-12-29T03:52:39;98774.16;;;19.76
74750;BMP280;63269;53.330;-6.288;2022-12-29T03:55:05;98800.75;;;19.76
74750;BMP280;63269;53.330;-6.288;2022-12-29T03:57:30;98800.75;;;19.76
74750;BMP280;63269;53.330;-6.288;2022-12-29T03:59:56;98800.28;;;19.78
74750;BMP280;63269;53.330;-6.288;2022-12-29T04:02:21;98799.34;;;19.81
74750;BMP280;63269;53.330;-6.288;2022-12-29T04:04:47;98799.34;;;19.81
74750;BMP280;63269;53.330;-6.288;2022-12-29T04:07:12;98802.06;;;19.87
74750;BMP280;63269;53.330;-6.288;2022-12-29T04:09:37;98809.81;;;19.90
74750;BMP280;63269;53.330;-6.288;2022-12-29T04:12:03;98809.81;;;19.90
74750;BMP280;63269;53.330;-6.288;2022-12-29T04:14:29;98810.06;;;19.92
74750;BMP280;63269;53.330;-6.288;2022-12-29T04:16:54;98817.63;;;20.00
74750;BMP280;63269;53.330;-6.288;2022-12-29T04:19:19;98821.75;;;20.01
74750;BMP280;63269;53.330;-6.288;2022-12-29T04:21:45;98821.75;;;20.01
74750;BMP280;63269;53.330;-6.288;2022-12-29T04:24:10;98841.63;;;20.05
74750;BMP280;63269;53.330;-6.288;2022-12-29T04:26:38;98841.63;;;20.05
74750;BMP280;63269;53.330;-6.288;2022-12-29T04:29:03;98825.19;;;20.07
74750;BMP280;63269;53.330;-6.288;2022-12-29T04:31:28;98851.09;;;20.12
74750;BMP280;63269;53.330;-6.288;2022-12-29T04:33:54;98852.06;;;20.14
74750;BMP280;63269;53.330;-6.288;2022-12-29T04:36:22;98862.53;;;20.18
74750;BMP280;63269;53.330;-6.288;2022-12-29T04:38:47;98863.97;;;20.19
74750;BMP280;63269;53.330;-6.288;2022-12-29T04:41:13;98850.19;;;20.21
74750;BMP280;63269;53.330;-6.288;2022-12-29T04:43:38;98863.78;;;20.23
74750;BMP280;63269;53.330;-6.288;2022-12-29T04:46:04;98872.00;;;20.25
74750;BMP280;63269;53.330;-6.288;2022-12-29T04:48:29;98876.84;;;20.26
74750;BMP280;63269;53.330;-6.288;2022-12-29T04:50:54;98876.84;;;20.26
74750;BMP280;63269;53.330;-6.288;2022-12-29T04:53:20;98875.16;;;20.29
74750;BMP280;63269;53.330;-6.288;2022-12-29T04:55:49;98879.09;;;20.33
74750;BMP280;63269;53.330;-6.288;2022-12-29T04:58:15;98881.50;;;20.31
74750;BMP280;63269;53.330;-6.288;2022-12-29T05:00:40;98900.41;;;20.33
74750;BMP280;63269;53.330;-6.288;2022-12-29T05:03:06;98880.28;;;20.32
74750;BMP280;63269;53.330;-6.288;2022-12-29T05:05:31;98892.84;;;20.32
74750;BMP280;63269;53.330;-6.288;2022-12-29T05:07:56;98903.50;;;20.32
74750;BMP280;63269;53.330;-6.288;2022-12-29T05:10:22;98908.59;;;20.30
74750;BMP280;63269;53.330;-6.288;2022-12-29T05:12:47;98889.50;;;20.31
74750;BMP280;63269;53.330;-6.288;2022-12-29T05:15:13;98903.25;;;20.30
74750;BMP280;63269;53.330;-6.288;2022-12-29T05:17:38;98904.75;;;20.31
74750;BMP280;63269;53.330;-6.288;2022-12-29T05:20:05;98904.75;;;20.31
74750;BMP280;63269;53.330;-6.288;2022-12-29T05:22:30;98910.78;;;20.31
74750;BMP280;63269;53.330;-6.288;2022-12-29T05:24:56;98912.97;;;20.33
74750;BMP280;63269;53.330;-6.288;2022-12-29T05:27:21;98912.97;;;20.33
74750;BMP280;63269;53.330;-6.288;2022-12-29T05:29:47;98915.91;;;20.35
74750;BMP280;63269;53.330;-6.288;2022-12-29T05:32:12;98912.75;;;20.36
74750;BMP280;63269;53.330;-6.288;2022-12-29T05:34:38;98928.97;;;20.38
74750;BMP280;63269;53.330;-6.288;2022-12-29T05:37:03;98916.66;;;20.41
74750;BMP280;63269;53.330;-6.288;2022-12-29T05:39:29;98926.84;;;20.43
74750;BMP280;63269;53.330;-6.288;2022-12-29T05:41:54;98929.72;;;20.45
74750;BMP280;63269;53.330;-6.288;2022-12-29T05:44:20;98929.72;;;20.45
74750;BMP280;63269;53.330;-6.288;2022-12-29T05:46:45;98924.94;;;20.49
74750;BMP280;63269;53.330;-6.288;2022-12-29T05:49:11;98948.41;;;20.50
74750;BMP280;63269;53.330;-6.288;2022-12-29T05:51:36;98948.41;;;20.50
74750;BMP280;63269;53.330;-6.288;2022-12-29T05:54:02;98951.38;;;20.52
74750;BMP280;63269;53.330;-6.288;2022-12-29T05:56:27;98924.75;;;20.52
74750;BMP280;63269;53.330;-6.288;2022-12-29T05:58:52;98929.56;;;20.54
74750;BMP280;63269;53.330;-6.288;2022-12-29T06:01:18;98934.44;;;20.55
74750;BMP280;63269;53.330;-6.288;2022-12-29T06:03:43;98922.59;;;20.56
74750;BMP280;63269;53.330;-6.288;2022-12-29T06:06:09;98927.41;;;20.58
74750;BMP280;63269;53.330;-6.288;2022-12-29T06:08:34;98938.78;;;20.58
74750;BMP280;63269;53.330;-6.288;2022-12-29T06:10:59;98936.13;;;20.58
74750;BMP280;63269;53.330;-6.288;2022-12-29T06:13:25;98939.09;;;20.61
74750;BMP280;63269;53.330;-6.288;2022-12-29T06:15:51;98932.53;;;20.62
74750;BMP280;63269;53.330;-6.288;2022-12-29T06:18:16;98945.84;;;20.62
74750;BMP280;63269;53.330;-6.288;2022-12-29T06:20:42;98950.72;;;20.63
74750;BMP280;63269;53.330;-6.288;2022-12-29T06:23:08;98935.47;;;20.64
74750;BMP280;63269;53.330;-6.288;2022-12-29T06:25:33;98935.47;;;20.64
74750;BMP280;63269;53.330;-6.288;2022-12-29T06:28:02;98942.25;;;20.65
74750;BMP280;63269;53.330;-6.288;2022-12-29T06:30:27;98947.09;;;20.66
74750;BMP280;63269;53.330;-6.288;2022-12-29T06:32:53;98947.09;;;20.66
74750;BMP280;63269;53.330;-6.288;2022-12-29T06:35:19;98938.13;;;20.64
74750;BMP280;63269;53.330;-6.288;2022-12-29T06:37:46;98949.03;;;20.66
74750;BMP280;63269;53.330;-6.288;2022-12-29T06:40:11;98949.03;;;20.66
74750;BMP280;63269;53.330;-6.288;2022-12-29T06:42:37;98950.97;;;20.65
74750;BMP280;63269;53.330;-6.288;2022-12-29T06:45:03;98945.66;;;20.65
74750;BMP280;63269;53.330;-6.288;2022-12-29T06:47:28;98942.03;;;20.68
74750;BMP280;63269;53.330;-6.288;2022-12-29T06:49:54;98942.03;;;20.68
74750;BMP280;63269;53.330;-6.288;2022-12-29T06:52:19;98956.53;;;20.67
74750;BMP280;63269;53.330;-6.288;2022-12-29T06:54:44;98950.75;;;20.69
74750;BMP280;63269;53.330;-6.288;2022-12-29T06:57:10;98960.66;;;20.68
74750;BMP280;63269;53.330;-6.288;2022-12-29T06:59:35;98960.66;;;20.68
74750;BMP280;63269;53.330;-6.288;2022-12-29T07:02:00;98978.13;;;20.69
74750;BMP280;63269;53.330;-6.288;2022-12-29T07:04:27;98978.13;;;20.69
74750;BMP280;63269;53.330;-6.288;2022-12-29T07:06:53;98986.13;;;20.69
74750;BMP280;63269;53.330;-6.288;2022-12-29T07:09:19;98986.13;;;20.69
74750;BMP280;63269;53.330;-6.288;2022-12-29T07:11:45;98988.28;;;20.71
74750;BMP280;63269;53.330;-6.288;2022-12-29T07:14:11;98981.78;;;20.72
74750;BMP280;63269;53.330;-6.288;2022-12-29T07:16:37;98983.22;;;20.73
74750;BMP280;63269;53.330;-6.288;2022-12-29T07:19:03;98983.22;;;20.73
74750;BMP280;63269;53.330;-6.288;2022-12-29T07:21:28;98985.88;;;20.73
74750;BMP280;63269;53.330;-6.288;2022-12-29T07:23:54;99003.81;;;20.72
74750;BMP280;63269;53.330;-6.288;2022-12-29T07:26:19;99002.13;;;20.75
74750;BMP280;63269;53.330;-6.288;2022-12-29T07:28:45;98988.53;;;20.73
74750;BMP280;63269;53.330;-6.288;2022-12-29T07:31:15;99003.59;;;20.76
74750;BMP280;63269;53.330;-6.288;2022-12-29T07:33:42;98994.84;;;20.75
74750;BMP280;63269;53.330;-6.288;2022-12-29T07:36:08;99013.50;;;20.75
74750;BMP280;63269;53.330;-6.288;2022-12-29T07:38:34;99002.84;;;20.75
74750;BMP280;63269;53.330;-6.288;2022-12-29T07:40:59;98994.84;;;20.75
74750;BMP280;63269;53.330;-6.288;2022-12-29T07:43:25;99004.31;;;20.76
74750;BMP280;63269;53.330;-6.288;2022-12-29T07:45:50;99003.13;;;20.77
74750;BMP280;63269;53.330;-6.288;2022-12-29T07:48:16;99005.78;;;20.77
74750;BMP280;63269;53.330;-6.288;2022-12-29T07:50:41;99005.78;;;20.77
74750;BMP280;63269;53.330;-6.288;2022-12-29T07:53:07;99013.03;;;20.77
74750;BMP280;63269;53.330;-6.288;2022-12-29T07:55:32;99021.78;;;20.77
74750;BMP280;63269;53.330;-6.288;2022-12-29T07:57:58;99005.78;;;20.77
74750;BMP280;63269;53.330;-6.288;2022-12-29T08:00:23;99005.78;;;20.77
74750;BMP280;63269;53.330;-6.288;2022-12-29T08:02:49;99023.69;;;20.77
74750;BMP280;63269;53.330;-6.288;2022-12-29T08:05:14;99014.50;;;20.78
74750;BMP280;63269;53.330;-6.288;2022-12-29T08:07:43;99028.56;;;20.78
74750;BMP280;63269;53.330;-6.288;2022-12-29T08:10:09;99028.56;;;20.78
74750;BMP280;63269;53.330;-6.288;2022-12-29T08:12:35;99027.34;;;20.79
74750;BMP280;63269;53.330;-6.288;2022-12-29T08:15:00;99027.34;;;20.79
74750;BMP280;63269;53.330;-6.288;2022-12-29T08:17:25;99044.06;;;20.80
74750;BMP280;63269;53.330;-6.288;2022-12-29T08:19:51;99032.66;;;20.79
74750;BMP280;63269;53.330;-6.288;2022-12-29T08:22:16;99032.97;;;20.82
74750;BMP280;63269;53.330;-6.288;2022-12-29T08:24:41;99047.72;;;20.83
74750;BMP280;63269;53.330;-6.288;2022-12-29T08:27:07;99047.72;;;20.83
74750;BMP280;63269;53.330;-6.288;2022-12-29T08:29:32;99045.53;;;20.81
74750;BMP280;63269;53.330;-6.288;2022-12-29T08:31:58;99045.53;;;20.81
74750;BMP280;63269;53.330;-6.288;2022-12-29T08:34:23;99043.84;;;20.84
74750;BMP280;63269;53.330;-6.288;2022-12-29T08:36:48;99043.84;;;20.84
74750;BMP280;63269;53.330;-6.288;2022-12-29T08:39:14;99049.91;;;20.84
74750;BMP280;63269;53.330;-6.288;2022-12-29T08:41:39;99063.97;;;20.85
74750;BMP280;63269;53.330;-6.288;2022-12-29T08:44:05;99063.97;;;20.85
74750;BMP280;63269;53.330;-6.288;2022-12-29T08:46:30;99053.31;;;20.85
74750;BMP280;63269;53.330;-6.288;2022-12-29T08:48:56;99054.03;;;20.85
74750;BMP280;63269;53.330;-6.288;2022-12-29T08:51:21;99060.84;;;20.86
74750;BMP280;63269;53.330;-6.288;2022-12-29T08:53:47;99057.44;;;20.86
74750;BMP280;63269;53.330;-6.288;2022-12-29T08:56:13;99055.03;;;20.88
74750;BMP280;63269;53.330;-6.288;2022-12-29T08:58:38;99063.00;;;20.88
74750;BMP280;63269;53.330;-6.288;2022-12-29T09:01:04;99077.06;;;20.88
74750;BMP280;63269;53.330;-6.288;2022-12-29T09:03:29;99078.53;;;20.89
74750;BMP280;63269;53.330;-6.288;2022-12-29T09:05:55;99086.53;;;20.89
74750;BMP280;63269;53.330;-6.288;2022-12-29T09:08:21;99094.06;;;20.91
74750;BMP280;63269;53.330;-6.288;2022-12-29T09:10:47;99076.84;;;20.92
74750;BMP280;63269;53.330;-6.288;2022-12-29T09:13:13;99087.50;;;20.92
74750;BMP280;63269;53.330;-6.288;2022-12-29T09:15:39;99112.22;;;20.92
74750;BMP280;63269;53.330;-6.288;2022-12-29T09:18:06;99108.38;;;20.93
74750;BMP280;63269;53.330;-6.288;2022-12-29T09:20:32;99126.75;;;20.91
74750;BMP280;63269;53.330;-6.288;2022-12-29T09:22:58;99113.69;;;20.93
74750;BMP280;63269;53.330;-6.288;2022-12-29T09:25:23;99133.06;;;20.94
74750;BMP280;63269;53.330;-6.288;2022-12-29T09:27:50;99136.50;;;20.94
74750;BMP280;63269;53.330;-6.288;2022-12-29T09:30:17;99137.94;;;20.95
74750;BMP280;63269;53.330;-6.288;2022-12-29T09:32:43;99154.66;;;20.96
74750;BMP280;63269;53.330;-6.288;2022-12-29T09:35:08;99155.38;;;20.96
74750;BMP280;63269;53.330;-6.288;2022-12-29T09:37:34;99158.78;;;20.97
74750;BMP280;63269;53.330;-6.288;2022-12-29T09:39:59;99154.19;;;20.97
74750;BMP280;63269;53.330;-6.288;2022-12-29T09:45:44;99155.38;;;20.96
74750;BMP280;63269;53.330;-6.288;2022-12-29T09:48:20;99164.38;;;20.99
74750;BMP280;63269;53.330;-6.288;2022-12-29T09:50:50;99150.34;;;20.98
74750;BMP280;63269;53.330;-6.288;2022-12-29T09:54:00;99166.78;;;20.97
74750;BMP280;63269;53.330;-6.288;2022-12-29T09:56:13;99160.31;;;21.04
74750;BMP280;63269;53.330;-6.288;2022-12-29T09:59:14;99184.09;;;21.07
74750;BMP280;63269;53.330;-6.288;2022-12-29T10:01:50;99181.19;;;21.11
74750;BMP280;63269;53.330;-6.288;2022-12-29T10:04:20;99191.41;;;21.12
74750;BMP280;63269;53.330;-6.288;2022-12-29T10:06:57;99206.44;;;21.15
74750;BMP280;63269;53.330;-6.288;2022-12-29T10:09:35;99199.91;;;21.16
74750;BMP280;63269;53.330;-6.288;2022-12-29T10:17:39;99202.84;;;21.18
74750;BMP280;63269;53.330;-6.288;2022-12-29T10:23:26;99217.38;;;21.17
74750;BMP280;63269;53.330;-6.288;2022-12-29T10:25:55;99228.75;;;21.18
74750;BMP280;63269;53.330;-6.288;2022-12-29T10:28:34;99213.25;;;21.16
74750;BMP280;63269;53.330;-6.288;2022-12-29T10:31:01;99211.31;;;21.17
74750;BMP280;63269;53.330;-6.288;2022-12-29T10:33:36;99238.69;;;21.17
74750;BMP280;63269;53.330;-6.288;2022-12-29T10:36:12;99236.75;;;21.18
74750;BMP280;63269;53.330;-6.288;2022-12-29T10:38:44;99225.34;;;21.17
74750;BMP280;63269;53.330;-6.288;2022-12-29T10:41:20;99243.31;;;21.17
74750;BMP280;63269;53.330;-6.288;2022-12-29T10:43:51;99247.19;;;21.16
74750;BMP280;63269;53.330;-6.288;2022-12-29T10:46:23;99248.63;;;21.17
74750;BMP280;63269;53.330;-6.288;2022-12-29T10:48:49;99264.38;;;21.15
74750;BMP280;63269;53.330;-6.288;2022-12-29T10:51:26;99283.03;;;21.15
74750;BMP280;63269;53.330;-6.288;2022-12-29T10:53:59;99281.09;;;21.15
74750;BMP280;63269;53.330;-6.288;2022-12-29T10:56:47;99275.03;;;21.15
74750;BMP280;63269;53.330;-6.288;2022-12-29T10:59:23;99283.75;;;21.15
74750;BMP280;63269;53.330;-6.288;2022-12-29T11:07:16;99290.03;;;21.12
74750;BMP280;63269;53.330;-6.288;2022-12-29T11:09:43;99288.81;;;21.13
74750;BMP280;63269;53.330;-6.288;2022-12-29T11:12:28;99292.22;;;21.14
74750;BMP280;63269;53.330;-6.288;2022-12-29T11:17:28;99280.09;;;21.13
74750;BMP280;63269;53.330;-6.288;2022-12-29T11:19:53;99280.81;;;21.13
74750;BMP280;63269;53.330;-6.288;2022-12-29T11:22:24;99301.44;;;21.13
74750;BMP280;63269;53.330;-6.288;2022-12-29T11:24:52;99306.03;;;21.12
74750;BMP280;63269;53.330;-6.288;2022-12-29T11:29:46;99305.31;;;21.12
74750;BMP280;63269;53.330;-6.288;2022-12-29T11:32:23;99309.41;;;21.13
74750;BMP280;63269;53.330;-6.288;2022-12-29T11:34:49;99310.63;;;21.12
74750;BMP280;63269;53.330;-6.288;2022-12-29T11:37:19;99311.38;;;21.12
74750;BMP280;63269;53.330;-6.288;2022-12-29T11:40:04;99317.38;;;21.07
74750;BMP280;63269;53.330;-6.288;2022-12-29T11:42:39;99319.56;;;21.09
74750;BMP280;63269;53.330;-6.288;2022-12-29T11:45:15;99324.16;;;21.08
74750;BMP280;63269;53.330;-6.288;2022-12-29T11:47:42;99331.66;;;21.10
74750;BMP280;63269;53.330;-6.288;2022-12-29T11:50:20;99344.56;;;21.11
74750;BMP280;63269;53.330;-6.288;2022-12-29T11:52:48;99341.59;;;21.09
74750;BMP280;63269;53.330;-6.288;2022-12-29T11:55:22;99339.97;;;21.12
74750;BMP280;63269;53.330;-6.288;2022-12-29T11:57:50;99345.75;;;21.10
74750;BMP280;63269;53.330;-6.288;2022-12-29T12:00:19;99344.56;;;21.11
74750;BMP280;63269;53.330;-6.288;2022-12-29T12:03:02;99343.81;;;21.11
74750;BMP280;63269;53.330;-6.288;2022-12-29T12:10:34;99345.75;;;21.10
74750;BMP280;63269;53.330;-6.288;2022-12-29T12:13:30;99338.75;;;21.13
74750;BMP280;63269;53.330;-6.288;2022-12-29T12:16:18;99356.69;;;21.12
74750;BMP280;63269;53.330;-6.288;2022-12-29T12:26:55;99376.78;;;21.13
74750;BMP280;63269;53.330;-6.288;2022-12-29T12:29:25;99367.63;;;21.14
74750;BMP280;63269;53.330;-6.288;2022-12-29T12:31:59;99379.72;;;21.15
74750;BMP280;63269;53.330;-6.288;2022-12-29T12:34:37;99382.41;;;21.15
74750;BMP280;63269;53.330;-6.288;2022-12-29T12:48:10;99398.66;;;21.17
74750;BMP280;63269;53.330;-6.288;2022-12-29T13:04:03;99405.47;;;21.18
74750;BMP280;63269;53.330;-6.288;2022-12-29T13:06:49;99417.59;;;21.19
74750;BMP280;63269;53.330;-6.288;2022-12-29T13:17:57;99446.44;;;21.21
74750;BMP280;63269;53.330;-6.288;2022-12-29T13:23:27;99451.06;;;21.20
74750;BMP280;63269;53.330;-6.288;2022-12-29T13:26:14;99459.75;;;21.21
74750;BMP280;63269;53.330;-6.288;2022-12-29T13:28:53;99467.75;;;21.21
74750;BMP280;63269;53.330;-6.288;2022-12-29T13:31:43;99470.00;;;21.23
74750;BMP280;63269;53.330;-6.288;2022-12-29T13:37:17;99479.19;;;21.22
74750;BMP280;63269;53.330;-6.288;2022-12-29T13:40:02;99479.91;;;21.22
74750;BMP280;63269;53.330;-6.288;2022-12-29T13:42:29;99492.53;;;21.22
74750;BMP280;63269;53.330;-6.288;2022-12-29T13:45:00;99500.06;;;21.23
74750;BMP280;63269;53.330;-6.288;2022-12-29T13:47:47;99498.56;;;21.22
74750;BMP280;63269;53.330;-6.288;2022-12-29T13:50:17;99502.00;;;21.23
74750;BMP280;63269;53.330;-6.288;2022-12-29T13:52:50;99512.66;;;21.23
74750;BMP280;63269;53.330;-6.288;2022-12-29T13:55:27;99516.78;;;21.24
74750;BMP280;63269;53.330;-6.288;2022-12-29T13:58:03;99515.59;;;21.25
74750;BMP280;63269;53.330;-6.288;2022-12-29T14:00:53;99511.47;;;21.24
74750;BMP280;63269;53.330;-6.288;2022-12-29T14:06:15;99515.59;;;21.25
74750;BMP280;63269;53.330;-6.288;2022-12-29T14:08:42;99526.72;;;21.23
74750;BMP280;63269;53.330;-6.288;2022-12-29T14:11:12;99533.53;;;21.24
74750;BMP280;63269;53.330;-6.288;2022-12-29T14:13:41;99520.22;;;21.24
74750;BMP280;63269;53.330;-6.288;2022-12-29T14:16:25;99521.63;;;21.25
74750;BMP280;63269;53.330;-6.288;2022-12-29T14:18:51;99525.53;;;21.24
74750;BMP280;63269;53.330;-6.288;2022-12-29T14:21:21;99527.44;;;21.24
74750;BMP280;63269;53.330;-6.288;2022-12-29T14:23:50;99526.00;;;21.23
74750;BMP280;63269;53.330;-6.288;2022-12-29T14:28:56;99527.44;;;21.24
74750;BMP280;63269;53.330;-6.288;2022-12-29T14:31:40;99526.72;;;21.23
74750;BMP280;63269;53.330;-6.288;2022-12-29T14:39:18;99525.53;;;21.24
74750;BMP280;63269;53.330;-6.288;2022-12-29T14:42:20;99528.22;;;21.24
74750;BMP280;63269;53.330;-6.288;2022-12-29T14:47:20;99522.13;;;21.24
74750;BMP280;63269;53.330;-6.288;2022-12-29T14:49:47;99526.72;;;21.23
74750;BMP280;63269;53.330;-6.288;2022-12-29T14:52:23;99538.13;;;21.24
74750;BMP280;63269;53.330;-6.288;2022-12-29T14:57:26;99534.00;;;21.23
74750;BMP280;63269;53.330;-6.288;2022-12-29T14:59:55;99541.25;;;21.22
74750;BMP280;63269;53.330;-6.288;2022-12-29T15:02:25;99547.34;;;21.23
74750;BMP280;63269;53.330;-6.288;2022-12-29T15:04:53;99553.84;;;21.22
74750;BMP280;63269;53.330;-6.288;2022-12-29T15:07:19;99548.50;;;21.22
74750;BMP280;63269;53.330;-6.288;2022-12-29T15:09:50;99549.25;;;21.22
74750;BMP280;63269;53.330;-6.288;2022-12-29T15:12:41;99547.34;;;21.23
74750;BMP280;63269;53.330;-6.288;2022-12-29T15:15:25;99541.72;;;21.20
74750;BMP280;63269;53.330;-6.288;2022-12-29T15:17:52;99548.50;;;21.22
74750;BMP280;63269;53.330;-6.288;2022-12-29T15:20:29;99540.50;;;21.22
74750;BMP280;63269;53.330;-6.288;2022-12-29T15:23:12;99551.19;;;21.22
74750;BMP280;63269;53.330;-6.288;2022-12-29T15:26:03;99551.19;;;21.22
74750;BMP280;63269;53.330;-6.288;2022-12-29T15:28:41;99552.38;;;21.20
74750;BMP280;63269;53.330;-6.288;2022-12-29T15:31:18;99553.09;;;21.21
74750;BMP280;63269;53.330;-6.288;2022-12-29T15:33:48;99555.75;;;21.21
74750;BMP280;63269;53.330;-6.288;2022-12-29T15:38:45;99574.41;;;21.21
74750;BMP280;63269;53.330;-6.288;2022-12-29T15:46:27;99595.75;;;21.21
74750;BMP280;63269;53.330;-6.288;2022-12-29T15:48:53;99591.66;;;21.20
74750;BMP280;63269;53.330;-6.288;2022-12-29T15:51:41;99589.72;;;21.20
74750;BMP280;63269;53.330;-6.288;2022-12-29T15:54:19;99589.72;;;21.20
74750;BMP280;63269;53.330;-6.288;2022-12-29T15:56:46;99592.84;;;21.19
74750;BMP280;63269;53.330;-6.288;2022-12-29T16:01:54;99592.84;;;21.19
74750;BMP280;63269;53.330;-6.288;2022-12-29T16:04:20;99595.50;;;21.19
74750;BMP280;63269;53.330;-6.288;2022-12-29T16:07:03;99597.44;;;21.18
74750;BMP280;63269;53.330;-6.288;2022-12-29T16:09:32;99591.66;;;21.20
74750;BMP280;63269;53.330;-6.288;2022-12-29T16:12:00;99589.72;;;21.20
74750;BMP280;63269;53.330;-6.288;2022-12-29T16:14:33;99584.38;;;21.20
74750;BMP280;63269;53.330;-6.288;2022-12-29T16:17:01;99587.50;;;21.19
74750;BMP280;63269;53.330;-6.288;2022-12-29T16:19:34;99595.50;;;21.19
74750;BMP280;63269;53.330;-6.288;2022-12-29T16:22:02;99606.91;;;21.19
74750;BMP280;63269;53.330;-6.288;2022-12-29T16:24:31;99620.25;;;21.19
74750;BMP280;63269;53.330;-6.288;2022-12-29T16:27:17;99605.44;;;21.18